createdAt,value
2023-04-18T00:00:27.416Z,100327.99
2023-04-18T00:02:55.940Z,100323.91
2023-04-18T00:05:24.587Z,100327.29
2023-04-18T00:07:53.472Z,100321.23
2023-04-18T00:10:21.733Z,100319.98
2023-04-18T00:12:49.753Z,100320.21
2023-04-18T00:15:18.622Z,100317.96
2023-04-18T00:17:48.337Z,100318.38
2023-04-18T00:20:16.553Z,100320.80
2023-04-18T00:22:46.677Z,100315.33
2023-04-18T00:25:14.957Z,100315.86
2023-04-18T00:27:43.323Z,100316.18
2023-04-18T00:30:12.058Z,100321.38
2023-04-18T00:32:40.158Z,100321.40
2023-04-18T00:35:08.754Z,100318.59
2023-04-18T00:37:37.515Z,100316.38
2023-04-18T00:40:06.776Z,100319.11
2023-04-18T00:42:35.616Z,100319.17
2023-04-18T00:45:04.153Z,100318.52
2023-04-18T00:47:33.456Z,100320.35
2023-04-18T00:50:01.720Z,100316.64
2023-04-18T00:52:30.040Z,100315.29
2023-04-18T00:54:58.067Z,100311.28
2023-04-18T00:57:26.313Z,100308.57
2023-04-18T00:59:54.321Z,100311.58
2023-04-18T01:02:23.055Z,100307.96
2023-04-18T01:04:52.324Z,100306.99
2023-04-18T01:07:20.568Z,100306.72
2023-04-18T01:09:48.808Z,100307.89
2023-04-18T01:12:17.170Z,100310.09
2023-04-18T01:14:45.214Z,100310.93
2023-04-18T01:17:14.657Z,100311.18
2023-04-18T01:19:48.566Z,100308.48
2023-04-18T01:22:16.589Z,100305.42
2023-04-18T01:24:44.634Z,100305.13
2023-04-18T01:27:15.633Z,100301.66
2023-04-18T01:29:43.807Z,100306.58
2023-04-18T01:32:12.221Z,100304.40
2023-04-18T01:34:40.405Z,100301.32
2023-04-18T01:37:08.593Z,100305.20
2023-04-18T01:39:36.957Z,100307.41
2023-04-18T01:42:05.175Z,100305.38
2023-04-18T01:44:33.839Z,100304.20
2023-04-18T01:47:02.077Z,100303.38
2023-04-18T01:49:30.716Z,100301.48
2023-04-18T01:51:58.693Z,100304.91
2023-04-18T01:54:26.809Z,100305.69
2023-04-18T01:56:54.931Z,100304.33
2023-04-18T01:59:23.607Z,100307.04
2023-04-18T02:01:51.723Z,100310.09
2023-04-18T02:04:19.914Z,100306.02
2023-04-18T02:06:48.394Z,100311.73
2023-04-18T02:09:16.429Z,100308.02
2023-04-18T02:11:44.602Z,100307.83
2023-04-18T02:14:13.139Z,100306.11
2023-04-18T02:16:41.425Z,100302.79
2023-04-18T02:19:09.695Z,100302.64
2023-04-18T02:21:37.821Z,100305.33
2023-04-18T02:24:05.874Z,100307.14
2023-04-18T02:26:34.003Z,100300.27
2023-04-18T02:29:02.285Z,100304.17
2023-04-18T02:31:32.258Z,100304.52
2023-04-18T02:34:00.374Z,100306.75
2023-04-18T02:36:28.617Z,100307.24
2023-04-18T02:38:56.867Z,100306.35
2023-04-18T02:41:24.887Z,100306.95
2023-04-18T02:43:54.960Z,100308.66
2023-04-18T02:46:23.205Z,100304.33
2023-04-18T02:48:51.561Z,100305.63
2023-04-18T02:51:20.150Z,100304.45
2023-04-18T02:53:48.885Z,100305.40
2023-04-18T02:56:17.326Z,100304.38
2023-04-18T02:59:04.242Z,100303.72
2023-04-18T03:01:44.399Z,100305.67
2023-04-18T03:04:15.989Z,100302.84
2023-04-18T03:06:48.379Z,100303.38
2023-04-18T03:09:17.034Z,100301.45
2023-04-18T03:11:48.280Z,100302.54
2023-04-18T03:14:16.905Z,100302.88
2023-04-18T03:16:53.877Z,100298.09
2023-04-18T03:19:25.919Z,100297.55
2023-04-18T03:21:55.089Z,100300.39
2023-04-18T03:24:23.591Z,100300.73
2023-04-18T03:26:53.506Z,100304.27
2023-04-18T03:29:23.588Z,100309.57
2023-04-18T03:31:52.550Z,100307.98
2023-04-18T03:34:20.997Z,100309.63
2023-04-18T03:36:49.372Z,100318.85
2023-04-18T03:39:17.938Z,100317.23
2023-04-18T03:41:46.453Z,100315.93
2023-04-18T03:44:15.235Z,100312.34
2023-04-18T03:46:43.611Z,100313.02
2023-04-18T03:49:11.902Z,100307.70
2023-04-18T03:51:45.399Z,100305.91
2023-04-18T03:54:14.673Z,100305.19
2023-04-18T03:56:43.319Z,100314.22
2023-04-18T03:59:11.763Z,100321.14
2023-04-18T04:01:40.858Z,100319.70
2023-04-18T04:04:14.260Z,100324.43
2023-04-18T04:06:42.837Z,100318.55
2023-04-18T04:09:11.168Z,100319.57
2023-04-18T04:11:39.839Z,100321.46
2023-04-18T04:14:09.509Z,100320.33
2023-04-18T04:16:41.171Z,100320.71
2023-04-18T04:19:10.703Z,100319.83
2023-04-18T04:21:42.880Z,100318.33
2023-04-18T04:24:14.010Z,100320.15
2023-04-18T04:26:44.441Z,100319.46
2023-04-18T04:29:16.467Z,100323.73
2023-04-18T04:31:45.318Z,100324.22
2023-04-18T04:34:13.852Z,100327.19
2023-04-18T04:36:44.016Z,100323.45
2023-04-18T04:39:14.692Z,100318.42
2023-04-18T04:41:53.539Z,100316.60
2023-04-18T04:44:25.881Z,100321.51
2023-04-18T04:46:54.767Z,100320.49
2023-04-18T04:49:25.348Z,100319.87
2023-04-18T04:51:53.370Z,100320.84
2023-04-18T04:54:21.646Z,100322.31
2023-04-18T04:56:49.985Z,100325.04
2023-04-18T04:59:18.321Z,100329.63
2023-04-18T05:01:47.265Z,100331.13
2023-04-18T05:04:17.216Z,100329.23
2023-04-18T05:06:46.307Z,100329.88
2023-04-18T05:09:14.444Z,100329.15
2023-04-18T05:11:42.598Z,100328.10
2023-04-18T05:14:12.455Z,100328.66
2023-04-18T05:16:41.703Z,100330.69
2023-04-18T05:19:09.803Z,100333.70
2023-04-18T05:21:38.000Z,100328.98
2023-04-18T05:24:06.132Z,100319.21
2023-04-18T05:26:34.262Z,100319.11
2023-04-18T05:29:02.330Z,100338.29
2023-04-18T05:31:30.675Z,100332.08
2023-04-18T05:33:58.960Z,100331.56
2023-04-18T05:36:27.028Z,100333.89
2023-04-18T05:38:55.333Z,100334.66
2023-04-18T05:41:23.434Z,100334.83
2023-04-18T05:44:04.332Z,100334.39
2023-04-18T05:46:33.803Z,100332.30
2023-04-18T05:49:02.160Z,100328.26
2023-04-18T05:51:31.440Z,100326.90
2023-04-18T05:53:59.882Z,100331.34
2023-04-18T05:56:27.933Z,100331.60
2023-04-18T05:58:56.515Z,100330.62
2023-04-18T06:01:24.751Z,100331.73
2023-04-18T06:03:52.886Z,100331.47
2023-04-18T06:06:21.678Z,100331.94
2023-04-18T06:08:49.846Z,100334.16
2023-04-18T06:11:21.280Z,100330.15
2023-04-18T06:13:49.327Z,100334.15
2023-04-18T06:16:17.588Z,100333.44
2023-04-18T06:18:45.891Z,100334.14
2023-04-18T06:21:14.468Z,100331.55
2023-04-18T06:23:42.963Z,100331.31
2023-04-18T06:26:11.264Z,100332.96
2023-04-18T06:28:39.521Z,100330.88
2023-04-18T06:31:08.709Z,100326.61
2023-04-18T06:33:37.803Z,100322.77
2023-04-18T06:36:07.327Z,100329.16
2023-04-18T06:38:35.830Z,100325.48
2023-04-18T06:41:04.064Z,100329.30
2023-04-18T06:43:32.520Z,100325.85
2023-04-18T06:46:05.274Z,100323.14
2023-04-18T06:48:33.983Z,100325.96
2023-04-18T06:51:02.302Z,100332.87
2023-04-18T06:53:30.933Z,100331.30
2023-04-18T06:55:59.184Z,100328.66
2023-04-18T06:58:27.446Z,100333.94
2023-04-18T07:00:55.702Z,100331.27
2023-04-18T07:03:24.070Z,100328.95
2023-04-18T07:05:52.380Z,100333.17
2023-04-18T07:08:20.858Z,100329.66
2023-04-18T07:10:48.888Z,100332.30
2023-04-18T07:13:17.438Z,100331.80
2023-04-18T07:15:45.624Z,100333.73
2023-04-18T07:18:18.032Z,100336.48
2023-04-18T07:20:51.734Z,100333.86
2023-04-18T07:23:20.359Z,100336.52
2023-04-18T07:25:49.642Z,100333.01
2023-04-18T07:28:19.674Z,100329.45
2023-04-18T07:30:48.568Z,100327.53
2023-04-18T07:33:17.614Z,100327.27
2023-04-18T07:35:46.808Z,100328.38
2023-04-18T07:38:14.911Z,100327.45
2023-04-18T07:40:45.368Z,100328.72
2023-04-18T07:43:13.530Z,100325.80
2023-04-18T07:45:43.424Z,100323.03
2023-04-18T07:48:11.777Z,100325.16
2023-04-18T07:50:40.323Z,100331.64
2023-04-18T07:53:09.275Z,100328.24
2023-04-18T07:55:37.527Z,100329.08
2023-04-18T07:58:06.093Z,100335.61
2023-04-18T08:00:37.173Z,100334.98
2023-04-18T08:03:07.713Z,100324.98
2023-04-18T08:05:39.349Z,100325.80
2023-04-18T08:08:08.494Z,100321.39
2023-04-18T08:10:36.547Z,100323.63
2023-04-18T08:13:04.710Z,100322.20
2023-04-18T08:15:33.091Z,100317.76
2023-04-18T08:18:01.440Z,100316.92
2023-04-18T08:20:29.910Z,100307.74
2023-04-18T08:23:07.323Z,100303.94
2023-04-18T08:25:37.085Z,100303.69
2023-04-18T08:28:06.722Z,100299.89
2023-04-18T08:30:35.522Z,100292.05
2023-04-18T08:33:03.702Z,100301.43
2023-04-18T08:35:31.827Z,100303.55
2023-04-18T08:38:01.458Z,100302.98
2023-04-18T08:40:30.455Z,100301.66
2023-04-18T08:42:58.945Z,100299.33
2023-04-18T08:45:28.819Z,100300.50
2023-04-18T08:47:59.036Z,100301.83
2023-04-18T08:50:27.896Z,100299.05
2023-04-18T08:52:56.298Z,100294.52
2023-04-18T08:55:24.572Z,100283.05
2023-04-18T08:57:56.017Z,100289.14
2023-04-18T09:00:24.254Z,100281.02
2023-04-18T09:02:56.937Z,100272.64
2023-04-18T09:05:26.935Z,100277.05
2023-04-18T09:07:56.225Z,100275.55
2023-04-18T09:10:29.248Z,100267.42
2023-04-18T09:12:57.718Z,100256.26
2023-04-18T09:15:29.878Z,100252.20
2023-04-18T09:18:00.066Z,100258.94
2023-04-18T09:20:37.739Z,100253.04
2023-04-18T09:23:11.377Z,100258.05
2023-04-18T09:25:48.733Z,100255.44
2023-04-18T09:28:30.220Z,100258.16
2023-04-18T09:30:59.837Z,100260.64
2023-04-18T09:33:34.467Z,100264.02
2023-04-18T09:36:27.512Z,100261.38
2023-04-18T09:38:57.034Z,100261.70
2023-04-18T09:41:25.551Z,100262.21
2023-04-18T09:44:14.977Z,100259.38
2023-04-18T09:46:47.121Z,100261.56
2023-04-18T09:49:17.067Z,100259.61
2023-04-18T09:51:46.431Z,100261.52
2023-04-18T09:54:16.001Z,100260.33
2023-04-18T09:56:44.924Z,100260.41
2023-04-18T09:59:13.432Z,100258.31
2023-04-18T10:01:41.882Z,100260.41
2023-04-18T10:04:10.026Z,100256.86
2023-04-18T10:06:40.085Z,100257.29
2023-04-18T10:09:09.293Z,100251.34
2023-04-18T10:11:37.373Z,100255.16
2023-04-18T10:14:08.117Z,100247.91
2023-04-18T10:16:36.638Z,100244.02
2023-04-18T10:19:37.959Z,100235.05
2023-04-18T10:22:06.357Z,100241.02
2023-04-18T10:24:48.581Z,100239.23
2023-04-18T10:27:17.696Z,100240.41
2023-04-18T10:29:50.338Z,100233.92
2023-04-18T10:32:19.605Z,100232.86
2023-04-18T10:34:48.114Z,100240.94
2023-04-18T10:37:17.769Z,100238.08
2023-04-18T10:40:11.114Z,100244.55
2023-04-18T10:42:48.556Z,100243.83
2023-04-18T10:45:23.932Z,100239.70
2023-04-18T10:48:14.687Z,100241.48
2023-04-18T10:51:18.113Z,100243.36
2023-04-18T10:53:48.815Z,100243.47
2023-04-18T10:56:17.135Z,100240.54
2023-04-18T10:58:51.582Z,100238.38
2023-04-18T11:01:31.776Z,100245.54
2023-04-18T11:04:01.396Z,100246.05
2023-04-18T11:06:31.447Z,100245.45
2023-04-18T11:09:13.560Z,100239.11
2023-04-18T11:14:06.751Z,100242.82
2023-04-18T11:16:34.956Z,100230.08
2023-04-18T11:19:23.914Z,100230.78
2023-04-18T11:21:52.152Z,100241.58
2023-04-18T11:24:24.263Z,100246.56
2023-04-18T11:26:56.209Z,100249.83
2023-04-18T11:29:24.687Z,100238.46
2023-04-18T11:31:56.703Z,100243.77
2023-04-18T11:34:32.842Z,100249.73
2023-04-18T11:37:01.268Z,100255.20
2023-04-18T11:39:29.574Z,100250.54
2023-04-18T11:41:59.242Z,100255.67
2023-04-18T11:44:27.266Z,100261.01
2023-04-18T11:46:55.464Z,100266.58
2023-04-18T11:49:27.601Z,100263.98
2023-04-18T11:51:55.933Z,100268.42
2023-04-18T11:54:53.641Z,100267.92
2023-04-18T11:57:31.110Z,100270.10
2023-04-18T11:59:59.865Z,100268.69
2023-04-18T12:02:41.065Z,100269.52
2023-04-18T12:05:10.540Z,100267.80
2023-04-18T12:07:42.665Z,100265.94
2023-04-18T12:10:19.949Z,100266.05
2023-04-18T12:12:49.045Z,100265.09
2023-04-18T12:15:17.652Z,100260.46
2023-04-18T12:17:48.674Z,100263.67
2023-04-18T12:20:17.047Z,100263.98
2023-04-18T12:22:49.887Z,100264.36
2023-04-18T12:25:27.391Z,100261.11
2023-04-18T12:28:03.862Z,100253.50
2023-04-18T12:30:34.163Z,100253.14
2023-04-18T12:33:04.886Z,100246.55
2023-04-18T12:35:33.246Z,100247.21
2023-04-18T12:38:02.063Z,100248.23
2023-04-18T12:40:30.715Z,100245.48
2023-04-18T12:42:59.756Z,100248.88
2023-04-18T12:45:29.407Z,100250.42
2023-04-18T12:47:57.541Z,100249.61
2023-04-18T12:50:26.691Z,100245.86
2023-04-18T12:52:57.055Z,100250.05
2023-04-18T12:55:25.922Z,100244.14
2023-04-18T12:57:55.005Z,100247.35
2023-04-18T13:00:25.436Z,100244.15
2023-04-18T13:02:53.779Z,100245.51
2023-04-18T13:05:24.394Z,100245.36
2023-04-18T13:07:58.646Z,100248.86
2023-04-18T13:10:33.599Z,100246.52
2023-04-18T13:13:02.016Z,100247.79
2023-04-18T13:15:31.399Z,100247.39
2023-04-18T13:18:04.845Z,100246.14
2023-04-18T13:20:34.173Z,100243.70
2023-04-18T13:23:02.935Z,100246.80
2023-04-18T13:25:31.465Z,100246.72
2023-04-18T13:28:01.027Z,100243.09
2023-04-18T13:30:29.461Z,100244.11
2023-04-18T13:32:57.625Z,100245.61
2023-04-18T13:35:26.018Z,100247.17
2023-04-18T13:37:53.995Z,100245.01
2023-04-18T13:40:22.220Z,100242.35
2023-04-18T13:42:50.557Z,100239.43
2023-04-18T13:45:19.015Z,100240.34
2023-04-18T13:47:47.331Z,100241.95
2023-04-18T13:50:16.216Z,100244.41
2023-04-18T13:52:44.886Z,100241.73
2023-04-18T13:55:12.987Z,100239.62
2023-04-18T13:57:41.289Z,100242.34
2023-04-18T14:00:11.134Z,100239.98
2023-04-18T14:02:42.382Z,100238.19
2023-04-18T14:05:10.974Z,100233.13
2023-04-18T14:07:39.369Z,100229.23
2023-04-18T14:10:08.197Z,100232.27
2023-04-18T14:12:36.861Z,100234.10
2023-04-18T14:15:14.998Z,100233.58
2023-04-18T14:17:45.440Z,100226.09
2023-04-18T14:20:19.393Z,100210.84
2023-04-18T14:22:52.395Z,100210.90
2023-04-18T14:25:20.941Z,100210.77
2023-04-18T14:27:49.165Z,100212.35
2023-04-18T14:30:17.433Z,100210.15
2023-04-18T14:32:46.186Z,100213.16
2023-04-18T14:35:14.493Z,100211.27
2023-04-18T14:37:42.636Z,100208.54
2023-04-18T14:40:11.410Z,100205.86
2023-04-18T14:42:39.539Z,100200.19
2023-04-18T14:45:08.623Z,100199.61
2023-04-18T14:47:39.219Z,100200.02
2023-04-18T14:50:08.854Z,100198.93
2023-04-18T14:52:37.149Z,100195.90
2023-04-18T14:55:07.041Z,100196.52
2023-04-18T14:57:36.361Z,100198.55
2023-04-18T15:00:07.471Z,100197.08
2023-04-18T15:02:35.925Z,100197.10
2023-04-18T15:05:04.560Z,100187.42
2023-04-18T15:07:33.889Z,100185.38
2023-04-18T15:10:02.183Z,100182.92
2023-04-18T15:12:32.373Z,100180.80
2023-04-18T15:15:00.659Z,100189.30
2023-04-18T15:17:29.395Z,100183.16
2023-04-18T15:19:58.936Z,100186.27
2023-04-18T15:22:26.843Z,100179.30
2023-04-18T15:24:55.287Z,100181.39
2023-04-18T15:27:23.347Z,100180.42
2023-04-18T15:29:52.178Z,100178.13
2023-04-18T15:32:20.931Z,100178.84
2023-04-18T15:34:49.269Z,100176.75
2023-04-18T15:37:17.407Z,100175.45
2023-04-18T15:39:45.572Z,100173.35
2023-04-18T15:42:13.799Z,100167.48
2023-04-18T15:44:42.029Z,100165.03
2023-04-18T15:47:10.052Z,100161.52
2023-04-18T15:49:38.188Z,100159.42
2023-04-18T15:52:06.998Z,100155.64
2023-04-18T15:54:35.966Z,100155.36
2023-04-18T15:57:04.339Z,100151.23
2023-04-18T15:59:32.580Z,100153.59
2023-04-18T16:02:00.887Z,100154.63
2023-04-18T16:04:32.062Z,100152.17
2023-04-18T16:07:32.878Z,100152.33
2023-04-18T16:10:03.782Z,100152.83
2023-04-18T16:12:32.267Z,100151.86
2023-04-18T16:15:01.091Z,100150.30
2023-04-18T16:17:29.686Z,100149.02
2023-04-18T16:19:57.953Z,100148.59
2023-04-18T16:22:26.529Z,100149.11
2023-04-18T16:24:55.979Z,100145.77
2023-04-18T16:27:24.110Z,100146.17
2023-04-18T16:29:53.817Z,100143.81
2023-04-18T16:32:31.965Z,100144.51
2023-04-18T16:35:10.555Z,100145.52
2023-04-18T16:37:41.975Z,100146.85
2023-04-18T16:40:10.471Z,100144.98
2023-04-18T16:42:42.285Z,100145.09
2023-04-18T16:45:13.099Z,100147.55
2023-04-18T16:47:41.143Z,100144.02
2023-04-18T16:50:09.684Z,100141.90
2023-04-18T16:52:39.048Z,100143.81
2023-04-18T16:55:07.662Z,100141.53
2023-04-18T16:57:36.761Z,100140.45
2023-04-18T17:00:06.773Z,100141.86
2023-04-18T17:02:35.475Z,100141.94
2023-04-18T17:05:03.895Z,100138.98
2023-04-18T17:07:32.408Z,100136.62
2023-04-18T17:10:00.441Z,100137.36
2023-04-18T17:12:28.501Z,100138.38
2023-04-18T17:14:56.617Z,100137.75
2023-04-18T17:17:24.767Z,100140.36
2023-04-18T17:19:52.921Z,100133.65
2023-04-18T17:22:21.150Z,100137.39
2023-04-18T17:24:49.348Z,100134.61
2023-04-18T17:27:45.541Z,100135.71
2023-04-18T17:30:24.162Z,100137.58
2023-04-18T17:32:52.848Z,100136.45
2023-04-18T17:35:21.384Z,100135.20
2023-04-18T17:37:49.830Z,100129.49
2023-04-18T17:40:18.462Z,100128.20
2023-04-18T17:42:46.704Z,100127.73
2023-04-18T17:45:14.738Z,100129.41
2023-04-18T17:47:43.416Z,100123.74
2023-04-18T17:50:12.135Z,100120.93
2023-04-18T17:52:40.320Z,100122.20
2023-04-18T17:55:08.928Z,100122.80
2023-04-18T17:57:37.496Z,100116.83
2023-04-18T18:00:10.579Z,100117.48
2023-04-18T18:02:42.563Z,100114.30
2023-04-18T18:05:13.792Z,100110.23
2023-04-18T18:07:47.437Z,100106.11
2023-04-18T18:10:19.262Z,100103.14
2023-04-18T18:12:47.444Z,100101.98
2023-04-18T18:15:15.591Z,100098.88
2023-04-18T18:17:44.038Z,100095.36
2023-04-18T18:20:12.877Z,100099.40
2023-04-18T18:22:41.362Z,100101.17
2023-04-18T18:25:09.974Z,100098.37
2023-04-18T18:27:38.622Z,100093.21
2023-04-18T18:30:07.363Z,100086.39
2023-04-18T18:32:36.898Z,100085.98
2023-04-18T18:35:06.407Z,100085.84
2023-04-18T18:37:34.442Z,100077.45
2023-04-18T18:40:04.959Z,100075.34
2023-04-18T18:42:33.173Z,100079.60
2023-04-18T18:45:01.749Z,100074.05
2023-04-18T18:47:30.726Z,100071.21
2023-04-18T18:49:59.235Z,100068.03
2023-04-18T18:52:29.886Z,100064.85
2023-04-18T18:54:57.995Z,100060.50
2023-04-18T18:57:26.334Z,100064.17
2023-04-18T18:59:55.826Z,100063.56
2023-04-18T19:02:24.597Z,100058.52
2023-04-18T19:04:53.091Z,100059.61
2023-04-18T19:07:22.283Z,100054.40
2023-04-18T19:09:50.614Z,100049.18
2023-04-18T19:12:18.758Z,100048.90
2023-04-18T19:14:46.997Z,100047.18
2023-04-18T19:17:17.816Z,100044.67
2023-04-18T19:19:46.157Z,100042.69
2023-04-18T19:22:14.299Z,100041.44
2023-04-18T19:24:42.528Z,100037.44
2023-04-18T19:27:10.678Z,100037.54
2023-04-18T19:29:39.514Z,100034.61
2023-04-18T19:32:07.702Z,100032.79
2023-04-18T19:34:37.331Z,100025.34
2023-04-18T19:37:05.506Z,100024.77
2023-04-18T19:39:33.957Z,100021.77
2023-04-18T19:42:03.988Z,100015.95
2023-04-18T19:44:32.486Z,100020.77
2023-04-18T19:47:00.740Z,100012.05
2023-04-18T19:49:29.274Z,100016.44
2023-04-18T19:51:59.581Z,100015.03
2023-04-18T19:54:27.678Z,100014.48
2023-04-18T19:56:56.705Z,100012.27
2023-04-18T19:59:24.723Z,100015.07
2023-04-18T20:01:52.877Z,100013.98
2023-04-18T20:04:22.269Z,100011.18
2023-04-18T20:06:50.565Z,100010.64
2023-04-18T20:09:19.032Z,100008.46
2023-04-18T20:11:48.514Z,100009.10
2023-04-18T20:14:16.614Z,100007.18
2023-04-18T20:16:46.683Z,100007.27
2023-04-18T20:19:15.804Z,100002.90
2023-04-18T20:21:44.126Z,100001.65
2023-04-18T20:24:12.270Z,99999.15
2023-04-18T20:26:40.475Z,99996.39
2023-04-18T20:29:08.842Z,99992.61
2023-04-18T20:31:41.913Z,99993.23
2023-04-18T20:34:10.197Z,99989.20
2023-04-18T20:36:41.677Z,99983.52
2023-04-18T20:39:09.812Z,99977.08
2023-04-18T20:41:38.673Z,99976.55
2023-04-18T20:44:06.878Z,99976.31
2023-04-18T20:46:35.165Z,99978.98
2023-04-18T20:49:03.402Z,99975.48
2023-04-18T20:51:32.130Z,99971.16
2023-04-18T20:54:00.650Z,99967.66
2023-04-18T20:56:29.721Z,99965.73
2023-04-18T20:58:58.090Z,99968.27
2023-04-18T21:01:26.297Z,99967.02
2023-04-18T21:03:54.707Z,99965.73
2023-04-18T21:06:23.249Z,99966.95
2023-04-18T21:08:53.373Z,99973.61
2023-04-18T21:11:21.487Z,99971.73
2023-04-18T21:13:50.468Z,99969.00
2023-04-18T21:16:18.756Z,99973.27
2023-04-18T21:18:47.181Z,99962.90
2023-04-18T21:21:15.321Z,99963.64
2023-04-18T21:23:43.975Z,99961.16
2023-04-18T21:26:13.177Z,99957.89
2023-04-18T21:29:04.802Z,99959.98
2023-04-18T21:31:34.205Z,99959.84
2023-04-18T21:34:04.308Z,99960.29
2023-04-18T21:36:33.502Z,99955.30
2023-04-18T21:39:01.769Z,99956.12
2023-04-18T21:41:30.101Z,99948.73
2023-04-18T21:43:58.124Z,99949.20
2023-04-18T21:46:26.407Z,99951.05
2023-04-18T21:48:54.664Z,99942.59
2023-04-18T21:51:23.087Z,99939.46
2023-04-18T21:53:52.152Z,99935.13
2023-04-18T21:56:20.276Z,99928.91
2023-04-18T21:58:48.421Z,99926.98
2023-04-18T22:01:16.524Z,99925.87
2023-04-18T22:03:44.841Z,99918.45
2023-04-18T22:06:13.665Z,99917.45
2023-04-18T22:08:42.324Z,99912.61
2023-04-18T22:11:11.840Z,99916.40
2023-04-18T22:13:46.003Z,99916.08
2023-04-18T22:16:14.181Z,99916.36
2023-04-18T22:18:42.513Z,99915.40
2023-04-18T22:21:10.846Z,99908.95
2023-04-18T22:23:39.078Z,99907.36
2023-04-18T22:26:07.118Z,99908.06
2023-04-18T22:28:35.778Z,99912.36
2023-04-18T22:31:04.135Z,99904.30
2023-04-18T22:33:32.250Z,99901.16
2023-04-18T22:36:01.026Z,99896.23
2023-04-18T22:38:29.761Z,99896.56
2023-04-18T22:41:01.097Z,99894.55
2023-04-18T22:43:30.782Z,99889.91
2023-04-18T22:45:59.438Z,99884.63
2023-04-18T22:48:27.576Z,99879.97
2023-04-18T22:50:55.664Z,99876.14
2023-04-18T22:53:23.768Z,99874.21
2023-04-18T22:55:51.726Z,99867.17
2023-04-18T22:58:19.836Z,99863.44
2023-04-18T23:00:47.972Z,99862.42
2023-04-18T23:03:16.311Z,99863.45
2023-04-18T23:05:44.568Z,99863.92
2023-04-18T23:08:13.021Z,99859.23
2023-04-18T23:10:41.170Z,99859.56
2023-04-18T23:13:09.187Z,99857.46
2023-04-18T23:15:37.348Z,99855.24
2023-04-18T23:18:05.826Z,99852.36
2023-04-18T23:20:34.330Z,99851.75
2023-04-18T23:23:02.888Z,99844.19
2023-04-18T23:25:34.242Z,99843.56
2023-04-18T23:28:02.382Z,99839.84
2023-04-18T23:32:19.618Z,99835.20
2023-04-18T23:34:47.749Z,99834.40
2023-04-18T23:37:16.175Z,99832.67
2023-04-18T23:39:44.255Z,99827.60
2023-04-18T23:42:12.282Z,99823.94
2023-04-18T23:44:40.394Z,99820.85
2023-04-18T23:47:08.562Z,99816.71
2023-04-18T23:49:36.799Z,99819.55
2023-04-18T23:52:05.253Z,99813.69
2023-04-18T23:54:33.982Z,99817.61
2023-04-18T23:57:02.132Z,99818.73
2023-04-18T23:59:30.770Z,99818.35
